createdAt,value
2018-02-21T00:01:14.313Z,75.85
2018-02-21T00:03:40.701Z,81.15
2018-02-21T00:06:07.106Z,77.65
2018-02-21T00:08:33.501Z,66.47
2018-02-21T00:10:59.918Z,80.97
2018-02-21T00:13:26.313Z,82.35
2018-02-21T00:15:52.728Z,76.82
2018-02-21T00:18:19.181Z,75.20
2018-02-21T00:20:45.605Z,73.85
2018-02-21T00:23:12.799Z,69.05
2018-02-21T00:25:39.233Z,83.15
2018-02-21T00:28:05.618Z,71.68
2018-02-21T00:30:32.792Z,76.43
2018-02-21T00:32:59.175Z,67.97
2018-02-21T00:35:25.550Z,74.53
2018-02-21T00:37:52.699Z,82.20
2018-02-21T00:40:19.835Z,65.25
2018-02-21T00:42:46.250Z,61.80
2018-02-21T00:45:12.671Z,63.80
2018-02-21T00:47:39.054Z,69.78
2018-02-21T00:50:06.210Z,70.22
2018-02-21T00:52:32.626Z,78.80
2018-02-21T00:54:59.003Z,69.40
2018-02-21T00:57:26.141Z,78.97
2018-02-21T00:59:53.258Z,70.18
2018-02-21T01:02:19.671Z,80.85
2018-02-21T01:04:46.470Z,71.20
2018-02-21T01:07:13.590Z,69.35
2018-02-21T01:09:39.995Z,72.40
2018-02-21T01:12:06.393Z,72.93
2018-02-21T01:14:33.534Z,79.68
2018-02-21T01:17:00.677Z,71.78
2018-02-21T01:19:27.053Z,75.22
2018-02-21T01:21:53.456Z,72.87
2018-02-21T01:24:20.601Z,74.60
2018-02-21T01:26:47.026Z,74.10
2018-02-21T01:29:14.162Z,77.75
2018-02-21T01:31:40.533Z,62.95
2018-02-21T01:34:07.679Z,81.43
2018-02-21T01:36:34.795Z,75.65
2018-02-21T01:39:02.186Z,76.50
2018-02-21T01:41:29.301Z,76.20
2018-02-21T01:43:55.699Z,69.70
2018-02-21T01:46:22.126Z,70.25
2018-02-21T01:48:48.509Z,69.78
2018-02-21T01:51:15.734Z,80.70
2018-02-21T01:53:42.814Z,73.12
2018-02-21T01:56:09.215Z,72.50
2018-02-21T01:58:35.631Z,69.97
2018-02-21T02:01:02.003Z,75.20
2018-02-21T02:03:28.397Z,81.45
2018-02-21T02:05:54.776Z,76.32
2018-02-21T02:08:21.190Z,77.53
2018-02-21T02:10:47.609Z,77.43
2018-02-21T02:13:13.987Z,90.60
2018-02-21T02:15:40.442Z,94.37
2018-02-21T02:18:07.571Z,95.35
2018-02-21T02:20:33.983Z,75.80
2018-02-21T02:23:00.414Z,72.35
2018-02-21T02:25:26.803Z,73.05
2018-02-21T02:27:54.005Z,90.28
2018-02-21T02:30:20.542Z,96.75
2018-02-21T02:32:46.966Z,94.60
2018-02-21T02:35:13.345Z,84.97
2018-02-21T02:37:39.753Z,60.33
2018-02-21T02:40:06.161Z,68.62
2018-02-21T02:42:32.558Z,85.50
2018-02-21T02:44:59.691Z,91.80
2018-02-21T02:47:26.874Z,75.47
2018-02-21T02:49:53.282Z,61.45
2018-02-21T02:54:45.897Z,67.43
2018-02-21T02:57:12.274Z,62.08
2018-02-21T02:59:39.408Z,71.95
2018-02-21T03:02:05.817Z,68.30
2018-02-21T03:04:32.209Z,72.40
2018-02-21T03:06:59.368Z,69.03
2018-02-21T03:09:26.491Z,65.93
2018-02-21T03:11:52.897Z,74.75
2018-02-21T03:14:19.289Z,83.53
2018-02-21T03:16:46.416Z,68.30
2018-02-21T03:19:12.827Z,63.15
2018-02-21T03:21:39.202Z,70.75
2018-02-21T03:24:06.373Z,72.85
2018-02-21T03:26:32.781Z,75.10
2018-02-21T03:28:59.909Z,68.43
2018-02-21T03:31:26.322Z,62.13
2018-02-21T03:33:52.749Z,57.58
2018-02-21T03:36:19.154Z,70.37
2018-02-21T03:38:46.289Z,75.37
2018-02-21T03:41:13.411Z,67.62
2018-02-21T03:43:39.812Z,60.55
2018-02-21T03:46:06.209Z,63.85
2018-02-21T03:48:33.354Z,57.40
2018-02-21T03:50:59.750Z,69.28
2018-02-21T03:53:26.132Z,80.10
2018-02-21T03:55:53.310Z,79.70
2018-02-21T03:58:19.692Z,71.62
2018-02-21T04:00:46.090Z,76.97
2018-02-21T04:03:12.490Z,67.57
2018-02-21T04:05:39.613Z,58.92
2018-02-21T04:08:06.031Z,66.82
2018-02-21T04:10:32.428Z,87.15
2018-02-21T04:12:58.830Z,82.18
2018-02-21T04:15:26.025Z,86.85
2018-02-21T04:17:52.396Z,90.90
2018-02-21T04:20:18.857Z,92.50
2018-02-21T04:25:19.801Z,108.93
2018-02-21T04:27:46.209Z,111.25
2018-02-21T04:30:12.587Z,101.30
2018-02-21T04:32:39.739Z,112.32
2018-02-21T04:37:33.125Z,69.12
2018-02-21T04:40:00.301Z,119.85
2018-02-21T04:42:26.673Z,193.55
2018-02-21T04:44:53.074Z,114.22
2018-02-21T04:47:19.446Z,176.32
2018-02-21T04:49:45.854Z,203.62
2018-02-21T04:52:12.239Z,180.02
2018-02-21T04:54:45.439Z,148.85
2018-02-21T05:10:36.337Z,129.35
2018-02-21T05:13:03.470Z,127.67
2018-02-21T05:15:30.043Z,106.05
2018-02-21T05:17:56.447Z,98.55
2018-02-21T05:20:22.889Z,90.78
2018-02-21T05:22:51.789Z,87.88
2018-02-21T05:25:19.174Z,99.80
2018-02-21T05:27:46.236Z,144.40
2018-02-21T05:30:12.653Z,117.47
2018-02-21T05:32:39.100Z,100.72
2018-02-21T05:35:05.504Z,93.55
2018-02-21T05:37:32.712Z,153.20
2018-02-21T05:39:59.141Z,279.87
2018-02-21T06:50:44.365Z,93.22
2018-02-21T06:53:11.508Z,92.62
2018-02-21T06:55:38.631Z,100.93
2018-02-21T06:58:05.036Z,93.50
2018-02-21T07:00:31.429Z,91.93
2018-02-21T07:02:58.625Z,88.62
2018-02-21T07:05:25.038Z,88.12
2018-02-21T07:07:51.709Z,78.83
2018-02-21T07:10:18.114Z,81.18
2018-02-21T07:12:44.548Z,89.50
2018-02-21T07:15:11.001Z,82.88
2018-02-21T07:17:37.401Z,86.60
2018-02-21T07:20:03.856Z,85.00
2018-02-21T07:22:30.274Z,82.88
2018-02-21T07:24:56.669Z,81.70
2018-02-21T07:27:23.080Z,87.17
2018-02-21T07:29:49.578Z,87.88
2018-02-21T07:32:15.981Z,82.82
2018-02-21T07:34:42.419Z,83.50
2018-02-21T07:37:08.824Z,78.95
2018-02-21T07:39:35.226Z,84.80
2018-02-21T07:42:01.653Z,87.12
2018-02-21T07:44:28.023Z,85.75
2018-02-21T07:46:54.413Z,84.37
2018-02-21T07:49:20.799Z,85.47
2018-02-21T07:51:47.213Z,86.00
2018-02-21T07:54:13.662Z,85.70
2018-02-21T07:56:40.065Z,89.22
2018-02-21T07:59:06.489Z,83.97
2018-02-21T08:01:32.909Z,79.80
2018-02-21T08:04:00.058Z,84.07
2018-02-21T08:06:27.198Z,80.25
2018-02-21T08:08:54.326Z,77.00
2018-02-21T08:11:20.725Z,82.57
2018-02-21T08:13:47.097Z,80.45
2018-02-21T08:16:13.506Z,77.82
2018-02-21T08:18:39.911Z,78.75
2018-02-21T08:21:06.336Z,76.07
2018-02-21T08:23:36.212Z,81.22
2018-02-21T08:26:03.376Z,76.87
2018-02-21T08:28:29.801Z,79.70
2018-02-21T08:30:56.210Z,77.82
2018-02-21T08:33:22.631Z,73.93
2018-02-21T08:35:49.129Z,75.30
2018-02-21T08:38:16.259Z,79.22
2018-02-21T08:40:42.662Z,74.50
2018-02-21T08:43:09.074Z,71.97
2018-02-21T08:45:35.457Z,74.32
2018-02-21T08:48:01.895Z,77.60
2018-02-21T08:50:28.290Z,78.03
2018-02-21T08:52:54.726Z,73.18
2018-02-21T08:55:21.143Z,78.65
2018-02-21T08:57:47.534Z,75.50
2018-02-21T09:00:13.946Z,81.05
2018-02-21T09:02:40.341Z,80.53
2018-02-21T09:05:07.506Z,81.93
2018-02-21T09:07:34.108Z,79.35
2018-02-21T09:10:00.529Z,79.07
2018-02-21T09:12:27.381Z,79.10
2018-02-21T09:14:53.942Z,75.60
2018-02-21T09:17:21.095Z,78.97
2018-02-21T09:19:48.295Z,81.63
2018-02-21T09:22:14.690Z,75.05
2018-02-21T09:24:41.102Z,77.22
2018-02-21T09:27:08.223Z,76.80
2018-02-21T09:29:34.662Z,75.87
2018-02-21T09:32:01.074Z,74.93
2018-02-21T09:34:34.465Z,77.45
2018-02-21T09:37:00.895Z,72.37
2018-02-21T09:39:27.300Z,77.17
2018-02-21T09:41:54.466Z,73.90
2018-02-21T09:44:20.866Z,75.95
2018-02-21T09:46:47.254Z,76.10
2018-02-21T09:49:13.650Z,73.00
2018-02-21T09:51:40.779Z,78.18
2018-02-21T09:54:07.184Z,80.85
2018-02-21T09:56:33.554Z,76.65
2018-02-21T09:59:00.705Z,78.43
2018-02-21T10:01:27.089Z,80.07
2018-02-21T10:03:53.514Z,77.65
2018-02-21T10:06:19.897Z,73.80
2018-02-21T10:08:46.322Z,77.45
2018-02-21T10:11:12.811Z,77.95
2018-02-21T10:13:39.195Z,77.40
2018-02-21T10:16:05.609Z,77.05
2018-02-21T10:18:31.994Z,82.72
2018-02-21T10:20:59.146Z,78.50
2018-02-21T10:23:26.309Z,77.60
2018-02-21T10:25:52.681Z,83.37
2018-02-21T10:28:19.082Z,74.00
2018-02-21T10:30:52.552Z,74.60
2018-02-21T10:33:19.802Z,75.95
2018-02-21T10:35:46.249Z,79.12
2018-02-21T10:38:13.442Z,76.18
2018-02-21T10:40:39.905Z,80.18
2018-02-21T10:43:06.296Z,77.62
2018-02-21T10:45:32.728Z,73.45
2018-02-21T10:47:59.113Z,79.75
2018-02-21T10:50:25.528Z,74.40
2018-02-21T10:52:51.906Z,77.43
2018-02-21T10:55:19.039Z,79.97
2018-02-21T10:57:45.454Z,82.37
2018-02-21T11:00:11.871Z,75.43
2018-02-21T11:02:38.314Z,77.13
2018-02-21T11:05:04.711Z,80.25
2018-02-21T11:07:31.123Z,77.15
2018-02-21T11:09:58.263Z,76.12
2018-02-21T11:12:24.653Z,76.87
2018-02-21T11:14:51.127Z,82.10
2018-02-21T11:17:17.518Z,72.73
2018-02-21T11:19:43.935Z,73.62
2018-02-21T11:22:10.343Z,71.00
2018-02-21T11:24:37.483Z,78.32
2018-02-21T11:27:03.908Z,73.28
2018-02-21T11:29:30.398Z,74.43
2018-02-21T11:31:56.815Z,79.80
2018-02-21T11:34:23.958Z,78.03
2018-02-21T11:36:50.355Z,73.20
2018-02-21T11:39:16.777Z,70.70
2018-02-21T11:41:43.189Z,69.50
2018-02-21T11:44:09.590Z,73.50
2018-02-21T11:46:36.732Z,71.32
2018-02-21T11:49:03.123Z,73.85
2018-02-21T11:51:29.532Z,72.50
2018-02-21T11:53:55.918Z,66.57
2018-02-21T11:56:22.320Z,68.17
2018-02-21T11:58:48.726Z,69.37
2018-02-21T12:01:15.105Z,71.18
2018-02-21T12:03:41.507Z,80.10
2018-02-21T12:06:07.920Z,65.62
2018-02-21T12:08:35.054Z,71.72
2018-02-21T12:11:01.437Z,66.93
2018-02-21T12:13:27.842Z,68.83
2018-02-21T12:15:56.998Z,66.45
2018-02-21T12:18:25.086Z,64.05
2018-02-21T12:20:54.434Z,60.83
2018-02-21T12:23:23.214Z,62.70
2018-02-21T12:25:52.132Z,64.30
2018-02-21T12:28:21.215Z,64.28
2018-02-21T12:30:50.052Z,64.32
2018-02-21T12:33:18.895Z,61.67
2018-02-21T12:35:47.791Z,63.25
2018-02-21T12:38:16.200Z,65.12
2018-02-21T12:40:51.080Z,63.80
2018-02-21T12:43:22.303Z,69.03
2018-02-21T12:45:51.906Z,64.12
2018-02-21T12:48:18.309Z,64.50
2018-02-21T12:50:44.756Z,67.53
2018-02-21T12:53:11.142Z,62.35
2018-02-21T12:55:38.284Z,63.13
2018-02-21T12:58:05.399Z,65.78
2018-02-21T13:00:31.800Z,67.32
2018-02-21T13:02:58.198Z,65.50
2018-02-21T13:05:25.338Z,64.93
2018-02-21T13:07:51.739Z,66.37
2018-02-21T13:10:18.127Z,66.43
2018-02-21T13:12:45.298Z,62.08
2018-02-21T13:15:11.702Z,49.67
2018-02-21T13:17:38.106Z,52.97
2018-02-21T13:20:04.486Z,60.15
2018-02-21T13:22:31.631Z,58.53
2018-02-21T13:24:58.793Z,48.08
2018-02-21T13:27:25.171Z,57.35
2018-02-21T13:29:51.576Z,40.88
2018-02-21T13:32:17.953Z,51.97
2018-02-21T13:34:44.371Z,45.83
2018-02-21T13:37:10.770Z,63.42
2018-02-21T13:39:37.175Z,62.28
2018-02-21T13:42:03.642Z,69.20
2018-02-21T13:44:30.062Z,57.58
2018-02-21T13:46:57.250Z,64.53
2018-02-21T13:49:23.655Z,57.62
2018-02-21T13:51:50.045Z,64.47
2018-02-21T13:54:16.469Z,58.42
2018-02-21T13:56:42.881Z,56.78
2018-02-21T13:59:09.280Z,65.55
2018-02-21T14:01:36.420Z,73.50
2018-02-21T14:04:03.602Z,69.35
2018-02-21T14:06:30.009Z,67.80
2018-02-21T14:08:57.140Z,67.60
2018-02-21T14:11:23.576Z,61.40
2018-02-21T14:13:49.958Z,63.90
2018-02-21T14:16:16.351Z,46.83
2018-02-21T14:18:42.754Z,57.00
2018-02-21T14:21:09.113Z,57.80
2018-02-21T14:26:01.722Z,57.70
2018-02-21T14:28:28.120Z,64.07
2018-02-21T14:30:55.284Z,65.72
2018-02-21T14:33:22.457Z,61.40
2018-02-21T14:35:49.023Z,60.92
2018-02-21T14:38:15.441Z,60.22
2018-02-21T14:40:41.938Z,58.97
2018-02-21T14:43:09.101Z,62.20
2018-02-21T14:45:36.241Z,56.90
2018-02-21T14:48:03.412Z,62.25
2018-02-21T14:50:29.796Z,58.35
2018-02-21T14:52:56.204Z,59.87
2018-02-21T14:55:23.075Z,56.10
2018-02-21T14:57:49.514Z,59.70
2018-02-21T15:00:15.923Z,57.95
2018-02-21T15:02:42.298Z,58.85
2018-02-21T15:05:08.699Z,57.88
2018-02-21T15:07:35.089Z,61.03
2018-02-21T15:10:02.243Z,61.58
2018-02-21T15:12:29.386Z,59.15
2018-02-21T15:14:57.708Z,56.33
2018-02-21T15:17:24.658Z,58.70
2018-02-21T15:19:51.192Z,62.03
2018-02-21T15:22:17.591Z,59.80
2018-02-21T15:24:44.735Z,53.15
2018-02-21T15:27:11.862Z,55.20
2018-02-21T15:29:38.302Z,51.23
2018-02-21T15:32:04.698Z,52.45
2018-02-21T15:34:31.121Z,52.45
2018-02-21T15:36:57.543Z,50.55
2018-02-21T15:39:24.009Z,51.13
2018-02-21T15:41:50.429Z,53.17
2018-02-21T15:44:16.988Z,48.00
2018-02-21T15:46:43.743Z,50.78
2018-02-21T15:49:10.161Z,56.97
2018-02-21T15:51:36.590Z,143.62
2018-02-21T15:54:03.054Z,127.13
2018-02-21T15:56:30.297Z,172.52
2018-02-21T15:58:56.769Z,106.68
2018-02-21T16:01:23.944Z,124.68
2018-02-21T16:03:50.420Z,118.10
2018-02-21T16:06:16.847Z,82.85
2018-02-21T16:08:43.299Z,132.45
2018-02-21T16:11:09.722Z,176.95
2018-02-21T16:13:36.158Z,96.22
2018-02-21T16:16:02.599Z,163.27
2018-02-21T16:18:29.070Z,84.50
2018-02-21T16:20:56.379Z,81.50
2018-02-21T16:23:22.815Z,73.25
2018-02-21T16:25:49.189Z,116.60
2018-02-21T16:28:16.325Z,78.15
2018-02-21T16:30:43.453Z,100.03
2018-02-21T16:33:09.841Z,94.15
2018-02-21T16:35:36.248Z,107.40
2018-02-21T16:38:03.443Z,68.53
2018-02-21T16:40:29.872Z,47.60
2018-02-21T16:42:56.430Z,57.95
2018-02-21T16:45:23.033Z,61.42
2018-02-21T16:47:49.675Z,62.85
2018-02-21T16:50:16.251Z,61.55
2018-02-21T16:52:42.842Z,62.65
2018-02-21T16:55:10.244Z,61.00
2018-02-21T16:57:36.983Z,64.35
2018-02-21T17:00:03.474Z,64.00
2018-02-21T17:02:30.875Z,62.75
2018-02-21T17:04:57.477Z,59.40
2018-02-21T17:07:24.170Z,62.03
2018-02-21T17:09:51.656Z,61.80
2018-02-21T17:12:18.989Z,62.22
2018-02-21T17:14:45.707Z,63.13
2018-02-21T17:17:12.348Z,69.25
2018-02-21T17:19:38.949Z,69.32
2018-02-21T17:22:05.735Z,67.85
2018-02-21T17:24:32.446Z,69.12
2018-02-21T17:26:59.091Z,61.70
2018-02-21T17:29:25.865Z,102.82
2018-02-21T17:31:52.550Z,100.07
2018-02-21T17:34:19.792Z,78.90
2018-02-21T17:36:46.497Z,68.18
2018-02-21T17:39:13.099Z,64.78
2018-02-21T17:41:39.758Z,64.35
2018-02-21T17:44:06.515Z,63.87
2018-02-21T17:46:32.986Z,61.03
2018-02-21T17:48:59.400Z,54.83
2018-02-21T17:51:25.793Z,52.08
2018-02-21T17:53:52.234Z,52.15
2018-02-21T17:56:18.660Z,55.40
2018-02-21T17:58:45.120Z,51.55
2018-02-21T18:01:11.741Z,56.83
2018-02-21T18:03:40.307Z,56.42
2018-02-21T18:06:10.117Z,53.75
2018-02-21T18:08:39.539Z,48.97
2018-02-21T18:11:08.184Z,53.72
2018-02-21T18:13:37.631Z,46.67
2018-02-21T18:16:04.085Z,51.05
2018-02-21T18:18:30.528Z,46.95
2018-02-21T18:20:56.925Z,47.60
2018-02-21T18:23:23.363Z,52.10
2018-02-21T18:25:49.803Z,50.92
2018-02-21T18:28:16.217Z,47.37
2018-02-21T18:30:43.582Z,46.65
2018-02-21T18:33:10.699Z,45.75
2018-02-21T18:35:39.106Z,45.60
2018-02-21T18:38:06.323Z,48.70
2018-02-21T18:40:32.836Z,44.03
2018-02-21T18:42:59.249Z,46.35
2018-02-21T18:45:25.632Z,44.10
2018-02-21T18:47:52.065Z,46.50
2018-02-21T18:50:18.454Z,48.33
2018-02-21T18:52:44.826Z,48.75
2018-02-21T18:55:11.230Z,44.00
2018-02-21T18:57:37.642Z,47.42
2018-02-21T19:00:04.877Z,45.63
2018-02-21T19:02:32.074Z,48.25
2018-02-21T19:04:58.467Z,53.22
2018-02-21T19:07:25.606Z,52.95
2018-02-21T19:09:52.011Z,51.17
2018-02-21T19:12:18.407Z,52.00
2018-02-21T19:14:44.819Z,49.50
2018-02-21T19:17:11.991Z,54.00
2018-02-21T19:19:38.468Z,55.85
2018-02-21T19:22:04.897Z,65.55
2018-02-21T19:24:31.290Z,73.30
2018-02-21T19:26:58.475Z,61.40
2018-02-21T19:29:24.903Z,75.03
2018-02-21T19:31:51.330Z,77.75
2018-02-21T19:34:17.742Z,85.93
2018-02-21T19:36:45.135Z,60.35
2018-02-21T19:39:11.915Z,53.08
2018-02-21T19:41:38.403Z,59.08
2018-02-21T19:44:09.315Z,53.35
2018-02-21T19:46:36.485Z,57.65
2018-02-21T19:49:02.927Z,54.33
2018-02-21T19:51:29.376Z,52.97
2018-02-21T19:53:55.865Z,52.45
2018-02-21T19:56:22.998Z,52.17
2018-02-21T19:58:49.422Z,50.05
2018-02-21T20:01:15.860Z,52.08
2018-02-21T20:03:42.346Z,53.97
2018-02-21T20:06:08.808Z,56.60
2018-02-21T20:08:35.232Z,52.97
2018-02-21T20:11:01.653Z,49.55
2018-02-21T20:13:28.030Z,58.00
2018-02-21T20:15:54.463Z,60.42
2018-02-21T20:18:20.881Z,55.33
2018-02-21T20:20:47.263Z,56.78
2018-02-21T20:23:14.408Z,55.30
2018-02-21T20:25:41.528Z,56.95
2018-02-21T20:28:07.998Z,59.95
2018-02-21T20:30:35.143Z,59.47
2018-02-21T20:33:01.519Z,58.17
2018-02-21T20:35:27.951Z,56.88
2018-02-21T20:37:54.354Z,54.03
2018-02-21T20:40:21.526Z,56.17
2018-02-21T20:42:47.925Z,54.30
2018-02-21T20:45:15.086Z,60.92
2018-02-21T20:47:42.330Z,59.03
2018-02-21T20:50:08.807Z,56.63
2018-02-21T20:52:35.250Z,61.83
2018-02-21T20:55:01.679Z,56.78
2018-02-21T20:57:28.058Z,58.85
2018-02-21T20:59:54.465Z,60.88
2018-02-21T21:02:20.898Z,61.97
2018-02-21T21:04:47.326Z,64.75
2018-02-21T21:07:13.765Z,64.95
2018-02-21T21:09:40.202Z,60.05
2018-02-21T21:12:06.598Z,60.25
2018-02-21T21:14:33.723Z,60.17
2018-02-21T21:17:00.134Z,64.28
2018-02-21T21:19:26.543Z,58.87
2018-02-21T21:21:52.922Z,61.33
2018-02-21T21:24:19.381Z,57.00
2018-02-21T21:26:46.501Z,61.28
2018-02-21T21:29:12.905Z,60.45
2018-02-21T21:31:39.322Z,63.40
2018-02-21T21:34:05.718Z,59.35
2018-02-21T21:36:32.164Z,63.33
2018-02-21T21:38:59.317Z,60.63
2018-02-21T21:41:26.494Z,62.65
2018-02-21T21:43:52.902Z,62.65
2018-02-21T21:46:20.050Z,60.15
2018-02-21T21:48:47.223Z,57.72
2018-02-21T21:51:13.608Z,58.30
2018-02-21T21:53:40.044Z,60.87
2018-02-21T21:56:06.485Z,62.10
2018-02-21T21:58:32.868Z,61.65
2018-02-21T22:00:59.278Z,61.97
2018-02-21T22:03:26.427Z,61.85
2018-02-21T22:05:53.587Z,63.63
2018-02-21T22:08:20.737Z,59.63
2018-02-21T22:10:47.142Z,56.55
2018-02-21T22:13:13.539Z,58.65
2018-02-21T22:15:39.921Z,55.47
2018-02-21T22:18:06.322Z,55.25
2018-02-21T22:20:32.761Z,55.58
2018-02-21T22:22:59.154Z,52.13
2018-02-21T22:25:25.562Z,55.97
2018-02-21T22:27:51.944Z,56.15
2018-02-21T22:30:18.338Z,54.97
2018-02-21T22:32:45.491Z,52.65
2018-02-21T22:35:12.605Z,59.00
2018-02-21T22:37:39.007Z,46.25
2018-02-21T22:40:05.382Z,50.27
2018-02-21T22:42:31.778Z,53.13
2018-02-21T22:44:58.165Z,54.47
2018-02-21T22:47:24.552Z,50.80
2018-02-21T22:49:50.954Z,52.60
2018-02-21T22:52:18.113Z,50.05
2018-02-21T22:54:44.517Z,52.72
2018-02-21T22:57:11.659Z,53.47
2018-02-21T22:59:38.069Z,53.72
2018-02-21T23:02:04.454Z,48.35
2018-02-21T23:04:31.594Z,50.85
2018-02-21T23:06:58.009Z,53.03
2018-02-21T23:09:24.397Z,47.13
2018-02-21T23:11:50.830Z,52.40
2018-02-21T23:14:17.206Z,51.60
2018-02-21T23:16:43.616Z,56.95
2018-02-21T23:19:10.014Z,49.15
2018-02-21T23:21:36.389Z,51.65
2018-02-21T23:24:02.804Z,49.80
2018-02-21T23:26:29.181Z,43.87
2018-02-21T23:28:55.590Z,51.33
2018-02-21T23:31:21.992Z,43.45
2018-02-21T23:33:48.377Z,45.65
2018-02-21T23:36:14.815Z,46.75
2018-02-21T23:38:41.222Z,47.08
2018-02-21T23:41:07.614Z,46.40
2018-02-21T23:43:34.042Z,46.45
2018-02-21T23:46:01.160Z,44.42
2018-02-21T23:48:27.591Z,46.45
2018-02-21T23:50:54.009Z,41.78
2018-02-21T23:53:20.387Z,43.30
2018-02-21T23:55:46.779Z,44.00
2018-02-21T23:58:13.159Z,39.95
